| Date | Time | Temp. (oF) | Dew Point (oF) | Rel. Hum. (%) | Press. (in.) | Wind Dir. | Wind Speed (mph) | Hourly Rainfall (in.) |
|
|---|---|---|---|---|---|---|---|---|---|
| 1 | 01/14 | 00:00 | 24 | 17 | 75 | 29.93 | SSW | 5 | 0.00 |
| 2 | 01/13 | 23:00 | 24 | 16 | 73 | 29.92 | WSW | 7 | 0.00 |
| 3 | 01/13 | 22:00 | 25 | 17 | 72 | 29.91 | SW | 14 | 0.00 |
| 4 | 01/13 | 21:00 | 26 | 17 | 69 | 29.90 | W | 3 | 0.00 |
| 5 | 01/13 | 20:00 | 26 | 16 | 68 | 29.87 | W | 15 | 0.00 |
| 6 | 01/13 | 19:00 | 27 | 17 | 68 | 29.85 | WSW | 10 | 0.00 |
| 7 | 01/13 | 18:00 | 27 | 16 | 65 | 29.81 | SSW | 4 | 0.00 |
| 8 | 01/13 | 17:00 | 27 | 15 | 62 | 29.76 | SW | 7 | 0.00 |
| 9 | 01/13 | 16:00 | 29 | 17 | 62 | 29.72 | WSW | 23 | 0.00 |
| 10 | 01/13 | 15:00 | 28 | 14 | 57 | 29.69 | SW | 12 | 0.00 |
| 11 | 01/13 | 14:00 | 28 | 15 | 60 | 29.66 | S | 12 | 0.00 |
| 12 | 01/13 | 13:00 | 29 | 16 | 59 | 29.63 | WSW | 14 | 0.00 |
| 13 | 01/13 | 12:00 | 29 | 16 | 58 | 29.60 | SW | 11 | 0.00 |
| 14 | 01/13 | 11:00 | 28 | 15 | 60 | 29.60 | WSW | 12 | 0.00 |
| 15 | 01/13 | 10:00 | 29 | 16 | 58 | 29.59 | SSW | 11 | 0.00 |
| 16 | 01/13 | 09:00 | 28 | 18 | 66 | 29.57 | WSW | 10 | 0.00 |
| 17 | 01/13 | 08:00 | 29 | 21 | 73 | 29.54 | WSW | 19 | 0.00 |
| 18 | 01/13 | 07:00 | 32 | 32 | 100 | 29.46 | SSW | 7 | 0.00 |
| 19 | 01/13 | 06:00 | 35 | 35 | 100 | 29.42 | W | 8 | 0.00 |
| 20 | 01/13 | 05:00 | 38 | 37 | 100 | 29.39 | S | 4 | 0.01 |
| 21 | 01/13 | 04:00 | 40 | 38 | 95 | 29.37 | SSW | 6 | 0.03 |
| 22 | 01/13 | 03:00 | 48 | 47 | 98 | 29.27 | S | 15 | 0.00 |
| 23 | 01/13 | 02:00 | 47 | 46 | 100 | 29.31 | SSE | 11 | 0.00 |
| 24 | 01/13 | 01:00 | 48 | 48 | 100 | 29.35 | SSE | 9 | 0.00 |